createdAt,value
2022-08-19T00:02:11.744Z,16.00
2022-08-19T00:04:38.756Z,15.43
2022-08-19T00:07:07.756Z,17.25
2022-08-19T00:09:34.914Z,16.50
2022-08-19T00:12:02.331Z,16.75
2022-08-19T00:14:32.750Z,15.40
2022-08-19T00:17:01.292Z,15.85
2022-08-19T00:19:28.157Z,15.13
2022-08-19T00:21:56.990Z,14.88
2022-08-19T00:24:24.342Z,16.90
2022-08-19T00:26:52.122Z,15.20
2022-08-19T00:29:25.482Z,16.83
2022-08-19T00:31:57.865Z,17.17
2022-08-19T00:34:25.633Z,16.58
2022-08-19T00:36:52.573Z,15.48
2022-08-19T00:39:19.533Z,16.38
2022-08-19T00:41:50.151Z,15.35
2022-08-19T00:44:22.637Z,16.10
2022-08-19T00:46:58.005Z,15.98
2022-08-19T00:49:32.623Z,16.27
2022-08-19T00:52:09.666Z,15.20
2022-08-19T00:54:38.682Z,16.25
2022-08-19T00:57:09.626Z,16.73
2022-08-19T01:00:01.211Z,16.38
2022-08-19T01:02:28.777Z,16.20
2022-08-19T01:04:56.003Z,15.55
2022-08-19T01:07:23.121Z,16.73
2022-08-19T01:09:50.714Z,14.90
2022-08-19T01:12:18.298Z,15.45
2022-08-19T01:14:46.710Z,15.65
2022-08-19T01:17:14.876Z,15.85
2022-08-19T01:19:44.763Z,16.67
2022-08-19T01:22:27.365Z,15.88
2022-08-19T01:24:55.744Z,14.65
2022-08-19T01:27:23.401Z,15.95
2022-08-19T01:29:51.709Z,15.82
2022-08-19T01:32:32.186Z,14.98
2022-08-19T01:35:03.203Z,15.50
2022-08-19T01:37:31.741Z,15.10
2022-08-19T01:39:59.010Z,16.40
2022-08-19T01:42:30.246Z,15.73
2022-08-19T01:44:58.076Z,15.35
2022-08-19T01:47:25.393Z,15.45
2022-08-19T01:49:52.308Z,13.90
2022-08-19T01:52:19.139Z,14.52
2022-08-19T01:54:45.921Z,13.52
2022-08-19T01:57:15.390Z,14.65
2022-08-19T01:59:44.445Z,14.60
2022-08-19T02:02:11.564Z,16.13
2022-08-19T02:04:39.568Z,15.13
2022-08-19T02:07:09.135Z,15.48
2022-08-19T02:09:36.961Z,13.77
2022-08-19T02:12:05.711Z,15.23
2022-08-19T02:14:35.221Z,14.52
2022-08-19T02:17:02.166Z,17.10
2022-08-19T02:19:29.045Z,14.50
2022-08-19T02:21:55.822Z,14.35
2022-08-19T02:24:22.663Z,14.73
2022-08-19T02:26:49.433Z,15.18
2022-08-19T02:29:16.386Z,13.65
2022-08-19T02:31:43.470Z,14.43
2022-08-19T02:34:10.317Z,14.10
2022-08-19T02:36:37.230Z,13.15
2022-08-19T02:39:10.075Z,14.73
2022-08-19T02:41:36.955Z,13.02
2022-08-19T02:44:28.618Z,14.65
2022-08-19T02:46:52.516Z,14.73
2022-08-19T02:49:20.869Z,13.70
2022-08-19T02:51:48.560Z,14.23
2022-08-19T02:54:16.301Z,13.77
2022-08-19T02:56:45.290Z,14.10
2022-08-19T02:59:13.259Z,13.57
2022-08-19T03:01:42.404Z,14.20
2022-08-19T03:04:13.992Z,13.70
2022-08-19T03:06:44.244Z,15.25
2022-08-19T03:09:12.381Z,13.68
2022-08-19T03:11:39.922Z,14.00
2022-08-19T03:14:09.498Z,14.90
2022-08-19T03:16:47.169Z,13.70
2022-08-19T03:19:16.380Z,12.98
2022-08-19T03:21:45.667Z,14.02
2022-08-19T03:24:14.162Z,13.95
2022-08-19T03:26:52.247Z,14.77
2022-08-19T03:29:30.868Z,14.35
2022-08-19T03:32:06.134Z,14.73
2022-08-19T03:34:35.690Z,13.65
2022-08-19T03:37:10.186Z,13.88
2022-08-19T03:39:40.372Z,13.52
2022-08-19T03:42:32.361Z,13.32
2022-08-19T03:44:54.433Z,12.68
2022-08-19T03:47:21.218Z,13.75
2022-08-19T03:49:48.209Z,13.82
2022-08-19T03:52:15.310Z,13.60
2022-08-19T03:54:42.233Z,16.02
2022-08-19T03:57:10.048Z,14.85
2022-08-19T03:59:38.881Z,14.15
2022-08-19T04:02:11.603Z,13.27
2022-08-19T04:04:41.982Z,12.70
2022-08-19T04:07:10.661Z,13.93
2022-08-19T04:09:38.105Z,13.88
2022-08-19T04:12:06.637Z,12.52
2022-08-19T04:14:34.914Z,14.38
2022-08-19T04:17:06.006Z,13.70
2022-08-19T04:19:36.016Z,14.25
2022-08-19T04:22:04.038Z,14.60
2022-08-19T04:24:31.189Z,13.57
2022-08-19T04:26:58.065Z,14.70
2022-08-19T04:29:27.904Z,15.85
2022-08-19T04:31:57.024Z,17.27
2022-08-19T04:34:28.211Z,16.10
2022-08-19T04:36:58.168Z,15.60
2022-08-19T04:39:49.956Z,14.15
2022-08-19T04:42:38.020Z,16.60
2022-08-19T04:45:09.513Z,14.85
2022-08-19T04:47:49.103Z,17.00
2022-08-19T04:50:27.736Z,17.40
2022-08-19T04:52:56.625Z,16.48
2022-08-19T04:55:26.743Z,16.48
2022-08-19T04:57:55.391Z,16.17
2022-08-19T05:00:22.370Z,17.75
2022-08-19T05:02:50.354Z,16.80
2022-08-19T05:05:18.036Z,15.43
2022-08-19T05:07:44.805Z,17.20
2022-08-19T05:10:11.589Z,15.80
2022-08-19T05:12:38.975Z,17.58
2022-08-19T05:15:09.659Z,17.55
2022-08-19T05:17:38.966Z,17.42
2022-08-19T05:20:26.555Z,17.75
2022-08-19T05:22:53.810Z,16.58
2022-08-19T05:25:22.808Z,16.90
2022-08-19T05:27:49.858Z,17.17
2022-08-19T05:30:18.049Z,17.27
2022-08-19T05:32:45.760Z,18.35
2022-08-19T05:35:12.917Z,19.90
2022-08-19T05:37:43.536Z,18.15
2022-08-19T05:40:11.466Z,18.65
2022-08-19T05:42:38.973Z,19.02
2022-08-19T05:45:06.728Z,19.50
2022-08-19T05:47:33.526Z,18.85
2022-08-19T05:50:02.890Z,17.55
2022-08-19T05:52:32.138Z,19.27
2022-08-19T05:54:58.913Z,17.80
2022-08-19T05:57:25.936Z,18.80
2022-08-19T05:59:58.642Z,19.23
2022-08-19T06:04:56.884Z,19.75
2022-08-19T06:07:24.020Z,18.90
2022-08-19T06:10:00.075Z,20.48
2022-08-19T06:12:35.526Z,18.88
2022-08-19T06:15:11.378Z,19.38
2022-08-19T06:17:39.288Z,20.50
2022-08-19T06:20:11.047Z,19.27
2022-08-19T06:22:51.000Z,21.10
2022-08-19T06:25:19.026Z,21.73
2022-08-19T06:28:13.542Z,20.85
2022-08-19T06:30:33.644Z,20.10
2022-08-19T06:33:00.610Z,18.63
2022-08-19T06:35:28.011Z,19.23
2022-08-19T06:37:55.191Z,21.73
2022-08-19T06:40:22.409Z,20.55
2022-08-19T06:42:54.881Z,20.45
2022-08-19T06:45:24.526Z,21.27
2022-08-19T06:47:55.416Z,20.83
2022-08-19T06:50:25.666Z,21.30
2022-08-19T06:52:53.430Z,19.73
2022-08-19T06:55:20.924Z,20.02
2022-08-19T06:57:49.270Z,21.80
2022-08-19T07:00:17.091Z,21.42
2022-08-19T07:02:49.680Z,20.00
2022-08-19T07:05:23.034Z,21.70
2022-08-19T07:07:49.901Z,20.05
2022-08-19T07:10:18.253Z,20.38
2022-08-19T07:12:45.478Z,21.80
2022-08-19T07:15:13.257Z,20.05
2022-08-19T07:17:41.837Z,21.67
2022-08-19T07:20:11.007Z,19.83
2022-08-19T07:22:41.353Z,20.77
2022-08-19T07:25:10.441Z,20.20
2022-08-19T07:27:38.167Z,20.17
2022-08-19T07:30:12.093Z,19.92
2022-08-19T07:32:40.101Z,20.25
2022-08-19T07:35:08.448Z,18.77
2022-08-19T07:37:36.612Z,20.30
2022-08-19T07:40:06.900Z,21.00
2022-08-19T07:42:33.897Z,20.63
2022-08-19T07:45:00.723Z,19.23
2022-08-19T07:47:47.469Z,20.10
2022-08-19T07:50:17.084Z,20.15
2022-08-19T07:52:45.728Z,19.85
2022-08-19T07:55:41.549Z,21.60
2022-08-19T07:58:11.577Z,19.98
2022-08-19T08:00:39.309Z,20.95
2022-08-19T08:03:06.149Z,19.45
2022-08-19T08:05:51.332Z,20.00
2022-08-19T08:08:36.674Z,20.63
2022-08-19T08:11:07.645Z,20.80
2022-08-19T08:13:36.346Z,20.42
2022-08-19T08:16:10.228Z,21.60
2022-08-19T08:18:43.293Z,21.63
2022-08-19T08:21:17.156Z,21.25
2022-08-19T08:23:43.978Z,20.25
2022-08-19T08:26:10.787Z,19.15
2022-08-19T08:28:39.785Z,20.02
2022-08-19T08:31:09.642Z,19.83
2022-08-19T08:33:36.696Z,20.10
2022-08-19T08:36:06.561Z,18.42
2022-08-19T08:38:39.863Z,18.13
2022-08-19T08:41:41.594Z,17.75
2022-08-19T08:44:20.069Z,18.20
2022-08-19T08:46:55.058Z,16.52
2022-08-19T08:49:34.775Z,18.05
2022-08-19T08:52:18.595Z,17.05
2022-08-19T08:54:55.001Z,15.75
2022-08-19T08:57:41.242Z,17.10
2022-08-19T09:00:17.597Z,15.10
2022-08-19T09:02:50.965Z,15.65
2022-08-19T09:05:26.052Z,14.35
2022-08-19T09:08:06.889Z,16.48
2022-08-19T09:10:55.701Z,15.25
2022-08-19T09:14:35.022Z,15.85
2022-08-19T09:17:00.633Z,13.88
2022-08-19T09:19:27.381Z,14.20
2022-08-19T09:21:56.348Z,13.68
2022-08-19T09:24:23.723Z,14.52
2022-08-19T09:26:57.914Z,11.77
2022-08-19T09:29:25.685Z,12.15
2022-08-19T09:31:52.539Z,13.20
2022-08-19T09:34:22.146Z,13.05
2022-08-19T09:36:54.622Z,13.18
2022-08-19T09:39:23.051Z,12.63
2022-08-19T09:41:51.079Z,12.13
2022-08-19T09:44:18.971Z,11.25
2022-08-19T09:46:48.139Z,10.07
2022-08-19T09:49:16.757Z,11.15
2022-08-19T09:51:50.890Z,11.02
2022-08-19T09:54:23.661Z,11.23
2022-08-19T09:56:53.454Z,9.88
2022-08-19T09:59:20.409Z,10.75
2022-08-19T10:01:47.578Z,9.70
2022-08-19T10:04:20.203Z,10.18
2022-08-19T10:06:51.787Z,9.65
2022-08-19T10:09:26.374Z,9.20
2022-08-19T10:12:03.778Z,9.88
2022-08-19T10:14:31.574Z,9.10
2022-08-19T10:16:59.106Z,9.70
2022-08-19T10:19:26.571Z,7.85
2022-08-19T10:21:58.570Z,7.25
2022-08-19T10:24:29.101Z,7.60
2022-08-19T10:26:58.736Z,7.15
2022-08-19T10:29:31.966Z,5.85
2022-08-19T10:32:09.774Z,5.65
2022-08-19T10:34:48.753Z,5.03
2022-08-19T10:37:28.840Z,4.95
2022-08-19T10:39:56.312Z,4.70
2022-08-19T10:42:23.222Z,4.78
2022-08-19T10:44:50.014Z,3.28
2022-08-19T10:47:25.927Z,3.58
2022-08-19T10:50:15.103Z,3.03
2022-08-19T10:52:49.102Z,2.88
2022-08-19T10:55:39.220Z,3.03
2022-08-19T10:58:16.831Z,2.20
2022-08-19T11:00:44.906Z,2.63
2022-08-19T11:03:11.954Z,2.67
2022-08-19T11:05:40.561Z,3.03
2022-08-19T11:08:22.550Z,1.90
2022-08-19T11:10:57.897Z,1.88
2022-08-19T11:13:25.673Z,1.98
2022-08-19T11:16:07.635Z,2.17
2022-08-19T11:18:49.990Z,2.10
2022-08-19T11:21:22.910Z,3.13
2022-08-19T11:23:53.121Z,1.98
2022-08-19T11:26:22.309Z,2.40
2022-08-19T11:28:52.630Z,2.40
2022-08-19T11:31:22.828Z,2.53
2022-08-19T11:33:53.531Z,3.73
2022-08-19T11:36:23.260Z,3.22
2022-08-19T11:38:51.137Z,4.22
2022-08-19T11:41:22.072Z,5.43
2022-08-19T11:43:48.933Z,4.82
2022-08-19T11:46:17.634Z,6.28
2022-08-19T11:48:45.710Z,6.63
2022-08-19T11:51:17.521Z,6.55
2022-08-19T11:53:44.301Z,6.80
2022-08-19T11:56:11.446Z,7.05
2022-08-19T11:58:39.734Z,7.65
2022-08-19T12:01:12.354Z,8.05
2022-08-19T12:03:40.520Z,8.82
2022-08-19T12:06:14.780Z,8.20
2022-08-19T12:08:43.366Z,8.52
2022-08-19T12:11:11.567Z,8.45
2022-08-19T12:13:40.025Z,9.27
2022-08-19T12:16:21.236Z,9.40
2022-08-19T12:18:48.630Z,9.27
2022-08-19T12:21:22.782Z,9.52
2022-08-19T12:23:55.218Z,9.55
2022-08-19T12:28:49.562Z,9.15
2022-08-19T12:31:17.462Z,8.63
2022-08-19T12:33:44.645Z,8.70
2022-08-19T12:36:13.921Z,9.02
2022-08-19T12:38:41.324Z,9.20
2022-08-19T12:41:13.246Z,9.13
2022-08-19T12:43:40.024Z,9.45
2022-08-19T12:46:07.434Z,9.30
2022-08-19T12:48:38.593Z,10.05
2022-08-19T12:51:14.265Z,10.75
2022-08-19T12:53:41.796Z,9.95
2022-08-19T12:56:12.354Z,11.38
2022-08-19T12:58:40.324Z,10.23
2022-08-19T13:01:10.182Z,11.10
2022-08-19T13:03:40.635Z,11.40
2022-08-19T13:06:09.056Z,11.70
2022-08-19T13:08:39.693Z,10.85
2022-08-19T13:11:16.182Z,10.93
2022-08-19T13:13:45.181Z,10.00
2022-08-19T13:16:13.889Z,10.43
2022-08-19T13:18:43.251Z,10.18
2022-08-19T13:21:14.243Z,11.00
2022-08-19T13:23:41.979Z,10.52
2022-08-19T13:26:11.405Z,10.90
2022-08-19T13:28:56.927Z,11.52
2022-08-19T13:31:45.558Z,10.05
2022-08-19T13:34:12.960Z,10.77
2022-08-19T13:36:40.208Z,10.38
2022-08-19T13:39:09.508Z,9.60
2022-08-19T13:41:37.225Z,10.75
2022-08-19T13:44:07.401Z,15.02
2022-08-19T13:46:34.217Z,12.35
2022-08-19T13:49:01.153Z,11.55
2022-08-19T13:51:28.179Z,11.27
2022-08-19T13:53:56.394Z,10.27
2022-08-19T13:56:26.264Z,10.18
2022-08-19T13:58:54.496Z,10.38
2022-08-19T14:01:25.578Z,11.77
2022-08-19T14:03:52.472Z,9.98
2022-08-19T14:06:19.887Z,10.23
2022-08-19T14:08:47.294Z,12.10
2022-08-19T14:11:14.849Z,11.80
2022-08-19T14:13:41.647Z,10.63
2022-08-19T14:16:14.102Z,9.27
2022-08-19T14:18:41.820Z,9.85
2022-08-19T14:21:18.587Z,9.73
2022-08-19T14:23:46.159Z,9.82
2022-08-19T14:26:17.201Z,9.63
2022-08-19T14:28:45.611Z,9.25
2022-08-19T14:31:17.750Z,10.57
2022-08-19T14:33:44.518Z,9.10
2022-08-19T14:36:11.313Z,10.23
2022-08-19T14:38:38.117Z,10.93
2022-08-19T14:41:23.345Z,10.65
2022-08-19T14:43:53.252Z,11.07
2022-08-19T14:46:28.108Z,10.23
2022-08-19T14:48:57.422Z,10.68
2022-08-19T14:51:27.815Z,11.27
2022-08-19T14:53:55.950Z,11.35
2022-08-19T14:56:26.689Z,13.52
2022-08-19T14:58:53.685Z,13.25
2022-08-19T15:01:23.715Z,11.77
2022-08-19T15:03:54.010Z,11.18
2022-08-19T15:06:22.619Z,10.93
2022-08-19T15:08:51.885Z,11.57
2022-08-19T15:11:23.681Z,10.27
2022-08-19T15:13:51.257Z,10.55
2022-08-19T15:16:19.251Z,9.98
2022-08-19T15:18:50.821Z,10.88
2022-08-19T15:21:26.888Z,10.50
2022-08-19T15:23:57.268Z,10.27
2022-08-19T15:26:26.230Z,10.68
2022-08-19T15:28:53.178Z,10.27
2022-08-19T15:31:25.247Z,11.27
2022-08-19T15:34:00.298Z,9.85
2022-08-19T15:36:30.507Z,11.43
2022-08-19T15:38:57.623Z,11.02
2022-08-19T15:41:29.473Z,12.82
2022-08-19T15:44:09.053Z,10.57
2022-08-19T15:46:39.752Z,11.55
2022-08-19T15:49:08.101Z,11.88
2022-08-19T15:51:36.291Z,12.20
2022-08-19T15:54:08.430Z,11.40
2022-08-19T15:56:57.704Z,11.27
2022-08-19T15:59:47.219Z,13.68
2022-08-19T16:02:35.243Z,13.73
2022-08-19T16:05:25.318Z,14.23
2022-08-19T16:07:52.226Z,13.70
2022-08-19T16:10:26.604Z,16.17
2022-08-19T16:12:58.226Z,14.73
2022-08-19T16:15:28.186Z,17.33
2022-08-19T16:17:59.123Z,15.93
2022-08-19T16:20:27.858Z,17.90
2022-08-19T16:22:58.302Z,15.82
2022-08-19T16:25:28.584Z,17.63
2022-08-19T16:28:06.431Z,17.15
2022-08-19T16:30:37.444Z,19.08
2022-08-19T16:33:04.404Z,18.42
2022-08-19T16:35:31.181Z,19.58
2022-08-19T16:37:57.986Z,18.80
2022-08-19T16:40:25.222Z,19.05
2022-08-19T16:42:53.691Z,19.95
2022-08-19T16:45:22.062Z,21.25
2022-08-19T16:47:48.963Z,20.13
2022-08-19T16:50:21.987Z,20.60
2022-08-19T16:52:52.125Z,20.20
2022-08-19T16:55:19.115Z,20.48
2022-08-19T16:57:45.906Z,22.10
2022-08-19T17:00:14.099Z,19.90
2022-08-19T17:02:40.879Z,20.15
2022-08-19T17:05:10.191Z,20.20
2022-08-19T17:07:36.999Z,18.38
2022-08-19T17:10:05.346Z,20.98
2022-08-19T17:12:32.661Z,20.23
2022-08-19T17:15:01.723Z,20.88
2022-08-19T17:17:29.863Z,18.75
2022-08-19T17:19:59.300Z,18.80
2022-08-19T17:22:27.107Z,19.60
2022-08-19T17:24:54.023Z,21.63
2022-08-19T17:27:26.313Z,20.80
2022-08-19T17:29:53.253Z,21.73
2022-08-19T17:32:25.117Z,18.73
2022-08-19T17:34:54.306Z,20.33
2022-08-19T17:37:21.350Z,20.65
2022-08-19T17:39:48.159Z,19.08
2022-08-19T17:42:15.091Z,19.50
2022-08-19T17:44:42.258Z,20.33
2022-08-19T17:47:13.109Z,20.42
2022-08-19T17:49:40.009Z,19.77
2022-08-19T17:52:09.908Z,18.75
2022-08-19T17:54:37.373Z,18.33
2022-08-19T17:57:04.369Z,19.65
2022-08-19T17:59:31.222Z,19.10
2022-08-19T18:02:00.064Z,19.67
2022-08-19T18:04:27.124Z,19.30
2022-08-19T18:06:55.767Z,19.75
2022-08-19T18:09:38.618Z,18.90
2022-08-19T18:12:10.894Z,19.48
2022-08-19T18:14:39.522Z,19.50
2022-08-19T18:17:12.955Z,18.63
2022-08-19T18:19:43.333Z,19.33
2022-08-19T18:22:42.268Z,18.45
2022-08-19T18:25:19.338Z,19.70
2022-08-19T18:27:47.696Z,19.00
2022-08-19T18:30:15.733Z,19.98
2022-08-19T18:32:44.206Z,19.55
2022-08-19T18:35:23.033Z,20.52
2022-08-19T18:37:49.903Z,18.85
2022-08-19T18:40:39.885Z,18.70
2022-08-19T18:43:25.994Z,19.75
2022-08-19T18:46:11.660Z,18.50
2022-08-19T18:48:57.678Z,19.70
2022-08-19T18:51:28.579Z,19.88
2022-08-19T18:53:58.929Z,19.35
2022-08-19T18:56:29.369Z,18.52
2022-08-19T18:58:59.016Z,17.98
2022-08-19T19:01:39.613Z,18.20
2022-08-19T19:04:13.338Z,18.52
2022-08-19T19:06:42.708Z,16.95
2022-08-19T19:09:17.709Z,17.25
2022-08-19T19:11:50.414Z,17.20
2022-08-19T19:14:48.326Z,18.17
2022-08-19T19:17:15.529Z,18.58
2022-08-19T19:19:44.117Z,17.70
2022-08-19T19:22:19.950Z,18.33
2022-08-19T19:24:46.902Z,17.88
2022-08-19T19:27:18.694Z,18.13
2022-08-19T19:29:48.504Z,18.05
2022-08-19T19:34:54.717Z,18.75
2022-08-19T19:37:22.644Z,19.33
2022-08-19T19:39:49.531Z,17.02
2022-08-19T19:42:21.324Z,18.67
2022-08-19T19:44:51.266Z,18.42
2022-08-19T19:47:19.369Z,17.75
2022-08-19T19:52:41.020Z,16.73
2022-08-19T19:55:09.654Z,18.38
2022-08-19T19:57:37.500Z,16.00
2022-08-19T20:00:08.510Z,17.58
2022-08-19T20:02:35.289Z,18.73
2022-08-19T20:05:02.132Z,17.23
2022-08-19T20:07:47.537Z,19.23
2022-08-19T20:10:14.336Z,17.20
2022-08-19T20:12:41.133Z,17.13
2022-08-19T20:15:09.217Z,17.20
2022-08-19T20:17:41.354Z,17.52
2022-08-19T20:20:14.088Z,18.07
2022-08-19T20:22:43.224Z,19.23
2022-08-19T20:25:17.642Z,17.65
2022-08-19T20:27:49.122Z,18.83
2022-08-19T20:30:20.028Z,18.20
2022-08-19T20:32:49.131Z,18.48
2022-08-19T20:35:21.215Z,17.55
2022-08-19T20:37:49.473Z,18.08
2022-08-19T20:40:21.662Z,18.50
2022-08-19T20:42:49.834Z,18.45
2022-08-19T20:45:32.411Z,17.83
2022-08-19T20:48:02.991Z,17.88
2022-08-19T20:50:35.344Z,16.02
2022-08-19T20:53:14.370Z,18.17
2022-08-19T20:55:45.322Z,18.65
2022-08-19T20:58:13.594Z,19.10
2022-08-19T21:00:44.007Z,19.25
2022-08-19T21:03:11.159Z,17.13
2022-08-19T21:05:38.143Z,17.30
2022-08-19T21:08:05.313Z,17.10
2022-08-19T21:10:33.034Z,17.08
2022-08-19T21:12:59.794Z,16.70
2022-08-19T21:15:26.621Z,16.20
2022-08-19T21:17:53.422Z,18.70
2022-08-19T21:20:20.267Z,16.92
2022-08-19T21:22:47.066Z,17.80
2022-08-19T21:25:14.006Z,18.13
2022-08-19T21:27:40.778Z,16.55
2022-08-19T21:30:09.090Z,16.27
2022-08-19T21:32:36.710Z,17.77
2022-08-19T21:35:04.370Z,16.52
2022-08-19T21:37:33.714Z,18.25
2022-08-19T21:40:00.815Z,15.57
2022-08-19T21:42:27.609Z,15.40
2022-08-19T21:44:54.416Z,16.10
2022-08-19T21:47:21.177Z,15.73
2022-08-19T21:49:47.950Z,14.93
2022-08-19T21:52:25.042Z,14.65
2022-08-19T21:54:52.056Z,15.07
2022-08-19T21:57:19.234Z,15.63
2022-08-19T21:59:46.203Z,14.95
2022-08-19T22:02:21.585Z,15.32
2022-08-19T22:04:51.530Z,14.45
2022-08-19T22:07:20.250Z,15.10
2022-08-19T22:09:49.596Z,15.85
2022-08-19T22:12:27.023Z,15.00
2022-08-19T22:14:55.133Z,15.18
2022-08-19T22:17:23.476Z,15.07
2022-08-19T22:19:52.573Z,13.93
2022-08-19T22:22:26.510Z,14.90
2022-08-19T22:24:59.256Z,14.98
2022-08-19T22:27:26.295Z,14.38
2022-08-19T22:29:53.358Z,14.32
2022-08-19T22:32:28.462Z,14.32
2022-08-19T22:34:58.987Z,13.50
2022-08-19T22:37:29.499Z,13.52
2022-08-19T22:39:56.471Z,14.45
2022-08-19T22:42:23.548Z,13.00
2022-08-19T22:44:50.382Z,13.55
2022-08-19T22:47:18.326Z,15.15
2022-08-19T22:49:45.413Z,14.45
2022-08-19T22:52:17.834Z,15.77
2022-08-19T22:54:51.046Z,11.20
2022-08-19T22:57:22.287Z,9.00
2022-08-19T22:59:51.436Z,8.50
2022-08-19T23:02:39.272Z,6.90
2022-08-19T23:05:22.136Z,4.80
2022-08-19T23:07:52.658Z,5.78
2022-08-19T23:10:27.521Z,4.30
2022-08-19T23:12:57.905Z,4.72
2022-08-19T23:15:31.391Z,5.85
2022-08-19T23:18:01.737Z,4.97
2022-08-19T23:20:34.103Z,5.00
2022-08-19T23:23:05.967Z,4.38
2022-08-19T23:25:35.098Z,4.55
2022-08-19T23:28:21.400Z,4.72
2022-08-19T23:30:50.294Z,4.25
2022-08-19T23:33:50.880Z,4.30
2022-08-19T23:36:18.653Z,4.45
2022-08-19T23:38:49.121Z,4.97
2022-08-19T23:41:19.267Z,4.72
2022-08-19T23:43:46.913Z,4.80
2022-08-19T23:46:28.255Z,4.95
2022-08-19T23:48:56.842Z,4.95
2022-08-19T23:51:26.762Z,4.57
2022-08-19T23:53:53.889Z,5.13
2022-08-19T23:56:21.569Z,5.30
2022-08-19T23:58:49.201Z,5.18
